createdAt,value
2018-05-11T00:00:54.773Z,37.60
2018-05-11T00:01:54.760Z,36.80
2018-05-11T00:03:47.302Z,36.50
2018-05-11T00:04:47.090Z,36.40
2018-05-11T00:06:39.430Z,36.30
2018-05-11T00:07:39.420Z,36.10
2018-05-11T00:09:32.864Z,36.00
2018-05-11T00:10:32.759Z,36.30
2018-05-11T00:12:25.102Z,35.70
2018-05-11T00:13:25.089Z,34.60
2018-05-11T00:15:17.541Z,35.50
2018-05-11T00:16:17.420Z,35.90
2018-05-11T00:18:09.767Z,37.00
2018-05-11T00:19:09.762Z,35.80
2018-05-11T00:21:02.300Z,35.30
2018-05-11T00:22:02.099Z,33.80
2018-05-11T00:23:54.449Z,35.00
2018-05-11T00:24:54.440Z,35.20
2018-05-11T00:26:47.597Z,34.20
2018-05-11T00:27:46.803Z,35.40
2018-05-11T00:29:39.176Z,33.90
2018-05-11T00:30:39.193Z,33.30
2018-05-11T00:32:31.642Z,33.10
2018-05-11T00:33:31.504Z,33.30
2018-05-11T00:35:23.838Z,33.10
2018-05-11T00:36:23.828Z,33.50
2018-05-11T00:38:16.389Z,32.40
2018-05-11T00:39:16.187Z,32.20
2018-05-11T00:41:08.536Z,32.90
2018-05-11T00:42:08.517Z,32.30
2018-05-11T00:44:00.977Z,31.30
2018-05-11T00:45:00.847Z,29.60
2018-05-11T00:46:53.196Z,30.40
2018-05-11T00:47:53.187Z,29.90
2018-05-11T00:49:45.736Z,30.10
2018-05-11T00:50:45.528Z,30.00
2018-05-11T00:52:37.960Z,29.70
2018-05-11T00:53:37.376Z,29.10
2018-05-11T00:55:29.833Z,28.80
2018-05-11T00:56:29.713Z,28.60
2018-05-11T00:58:22.149Z,28.40
2018-05-11T00:59:22.051Z,29.20
2018-05-11T01:01:14.606Z,28.40
2018-05-11T01:02:14.404Z,28.70
2018-05-11T01:04:06.747Z,29.60
2018-05-11T01:05:06.762Z,30.10
2018-05-11T01:06:59.197Z,32.10
2018-05-11T01:08:02.047Z,29.60
2018-05-11T01:09:50.955Z,30.00
2018-05-11T01:10:50.914Z,29.10
2018-05-11T01:12:43.412Z,27.70
2018-05-11T01:13:43.310Z,28.00
2018-05-11T01:15:35.683Z,27.90
2018-05-11T01:16:35.649Z,28.20
2018-05-11T01:18:28.086Z,27.80
2018-05-11T01:19:27.999Z,29.40
2018-05-11T01:21:20.347Z,27.90
2018-05-11T01:22:20.338Z,28.00
2018-05-11T01:24:12.815Z,27.80
2018-05-11T01:25:12.698Z,28.40
2018-05-11T01:27:05.022Z,29.30
2018-05-11T01:28:05.022Z,29.40
2018-05-11T01:31:28.881Z,28.20
2018-05-11T01:32:28.668Z,29.20
2018-05-11T01:34:21.606Z,29.00
2018-05-11T01:35:21.064Z,29.60
2018-05-11T01:37:13.588Z,29.00
2018-05-11T01:38:13.373Z,27.90
2018-05-11T01:40:05.731Z,27.30
2018-05-11T01:41:05.698Z,28.60
2018-05-11T01:43:01.140Z,27.60
2018-05-11T01:43:58.063Z,27.80
2018-05-11T01:45:50.426Z,26.50
2018-05-11T01:46:50.394Z,27.30
2018-05-11T01:48:42.908Z,27.30
2018-05-11T01:49:42.735Z,26.50
2018-05-11T01:51:35.099Z,26.50
2018-05-11T01:52:35.075Z,26.20
2018-05-11T01:54:27.524Z,27.30
2018-05-11T01:55:27.404Z,27.20
2018-05-11T01:57:19.780Z,27.20
2018-05-11T01:58:19.752Z,27.10
2018-05-11T02:00:12.174Z,27.60
2018-05-11T02:01:12.102Z,26.90
2018-05-11T02:03:04.467Z,26.90
2018-05-11T02:04:04.451Z,25.80
2018-05-11T02:05:56.522Z,25.10
2018-05-11T02:06:56.298Z,26.50
2018-05-11T02:08:48.639Z,25.60
2018-05-11T02:09:48.627Z,24.80
2018-05-11T02:11:41.208Z,25.40
2018-05-11T02:12:40.956Z,25.40
2018-05-11T02:14:33.298Z,25.40
2018-05-11T02:15:33.290Z,25.00
2018-05-11T02:17:25.746Z,25.30
2018-05-11T02:18:25.617Z,23.50
2018-05-11T02:20:18.992Z,26.90
2018-05-11T02:21:18.983Z,24.30
2018-05-11T02:23:12.467Z,25.00
2018-05-11T02:24:12.339Z,26.30
2018-05-11T02:26:05.703Z,24.70
2018-05-11T02:27:05.694Z,22.70
2018-05-11T02:28:59.247Z,20.50
2018-05-11T02:29:59.038Z,20.50
2018-05-11T02:31:52.402Z,24.40
2018-05-11T02:32:52.388Z,19.80
2018-05-11T02:34:45.853Z,17.80
2018-05-11T02:35:45.728Z,17.00
2018-05-11T02:37:39.079Z,19.60
2018-05-11T02:38:39.070Z,20.10
2018-05-11T02:40:32.621Z,15.50
2018-05-11T02:41:32.427Z,16.60
2018-05-11T02:43:25.870Z,15.50
2018-05-11T02:44:25.763Z,12.60
2018-05-11T02:46:19.427Z,17.90
2018-05-11T02:47:19.108Z,14.10
2018-05-11T02:49:12.473Z,17.20
2018-05-11T02:50:12.474Z,18.50
2018-05-11T02:52:05.950Z,18.50
2018-05-11T02:53:05.819Z,15.10
2018-05-11T02:54:59.181Z,18.40
2018-05-11T02:55:59.171Z,15.40
2018-05-11T02:57:52.689Z,16.20
2018-05-11T02:58:52.562Z,14.90
2018-05-11T03:00:45.925Z,22.50
2018-05-11T03:01:45.911Z,19.30
2018-05-11T03:03:38.466Z,27.80
2018-05-11T03:04:38.254Z,25.00
2018-05-11T03:06:31.186Z,19.70
2018-05-11T03:07:30.942Z,23.80
2018-05-11T03:09:23.900Z,54.20
2018-05-11T03:10:23.065Z,588.00
2018-05-11T03:12:15.412Z,671.10
2018-05-11T03:15:07.845Z,368.00
2018-05-11T03:16:07.729Z,327.70
2018-05-11T03:18:03.160Z,159.60
2018-05-11T03:19:00.409Z,182.00
2018-05-11T03:20:52.771Z,42.10
2018-05-11T03:21:52.653Z,28.10
2018-05-11T03:23:45.010Z,29.60
2018-05-11T03:24:45.014Z,35.80
2018-05-11T03:26:36.994Z,30.00
2018-05-11T03:27:36.845Z,26.50
2018-05-11T03:29:29.198Z,26.40
2018-05-11T03:30:29.179Z,29.60
2018-05-11T03:32:21.646Z,30.20
2018-05-11T03:33:21.503Z,23.80
2018-05-11T03:35:14.037Z,26.50
2018-05-11T03:36:14.024Z,24.60
2018-05-11T03:38:06.569Z,27.10
2018-05-11T03:39:06.813Z,23.70
2018-05-11T03:40:58.702Z,22.00
2018-05-11T03:41:58.695Z,21.60
2018-05-11T03:43:51.177Z,23.60
2018-05-11T03:44:51.507Z,22.90
2018-05-11T03:46:43.420Z,23.00
2018-05-11T03:47:43.427Z,23.70
2018-05-11T03:49:35.871Z,19.80
2018-05-11T03:50:35.766Z,18.10
2018-05-11T03:52:28.124Z,18.00
2018-05-11T03:53:28.085Z,23.90
2018-05-11T03:55:21.991Z,21.00
2018-05-11T03:56:20.450Z,20.30
2018-05-11T03:58:12.790Z,16.70
2018-05-11T03:59:12.801Z,19.00
2018-05-11T04:01:05.959Z,514.40
2018-05-11T04:02:05.135Z,552.70
2018-05-11T04:03:57.492Z,340.70
2018-05-11T04:04:57.480Z,299.50
2018-05-11T04:06:50.068Z,150.40
2018-05-11T04:07:49.851Z,192.10
2018-05-11T04:09:41.819Z,305.20
2018-05-11T04:10:41.711Z,296.40
2018-05-11T04:12:33.696Z,312.90
2018-05-11T04:13:34.894Z,294.60
2018-05-11T04:15:25.360Z,327.30
2018-05-11T04:16:25.339Z,315.90
2018-05-11T04:18:17.887Z,266.00
2018-05-11T04:19:17.683Z,271.00
2018-05-11T04:21:10.031Z,276.20
2018-05-11T04:22:10.027Z,269.80
2018-05-11T04:24:02.571Z,283.00
2018-05-11T04:25:02.355Z,282.50
2018-05-11T04:26:54.732Z,254.40
2018-05-11T04:27:54.701Z,222.00
2018-05-11T04:29:47.189Z,261.80
2018-05-11T04:30:47.036Z,231.80
2018-05-11T04:32:39.394Z,218.20
2018-05-11T04:33:39.370Z,221.20
2018-05-11T04:35:32.379Z,211.00
2018-05-11T04:36:32.167Z,216.10
2018-05-11T04:38:25.443Z,230.20
2018-05-11T04:39:25.434Z,216.90
2018-05-11T04:41:16.563Z,181.80
2018-05-11T04:42:16.400Z,163.00
2018-05-11T04:44:08.743Z,138.10
2018-05-11T04:45:08.806Z,139.80
2018-05-11T04:47:01.196Z,132.70
2018-05-11T04:48:01.057Z,132.90
2018-05-11T04:49:53.401Z,133.00
2018-05-11T04:50:53.391Z,139.40
2018-05-11T04:51:53.392Z,150.70
2018-05-11T04:52:53.375Z,146.70
2018-05-11T04:53:53.375Z,155.30
2018-05-11T04:54:53.360Z,150.70
2018-05-11T04:55:53.355Z,166.10
2018-05-11T04:56:53.351Z,165.60
2018-05-11T04:57:53.343Z,158.10
2018-05-11T04:58:53.357Z,148.80
2018-05-11T04:59:53.330Z,152.80
2018-05-11T05:00:53.334Z,151.80
2018-05-11T05:01:53.323Z,138.40
2018-05-11T05:02:53.355Z,124.80
2018-05-11T05:03:53.298Z,129.90
2018-05-11T05:04:53.294Z,123.10
2018-05-11T05:05:53.294Z,117.70
2018-05-11T05:06:53.279Z,118.10
2018-05-11T05:07:53.273Z,124.90
2018-05-11T05:08:53.264Z,130.10
2018-05-11T05:09:53.257Z,126.60
2018-05-11T05:10:53.277Z,125.90
2018-05-11T05:11:53.248Z,125.60
2018-05-11T05:12:53.262Z,125.00
2018-05-11T05:13:53.231Z,125.80
2018-05-11T05:14:53.224Z,120.80
2018-05-11T05:15:53.222Z,123.60
2018-05-11T05:16:53.236Z,114.60
2018-05-11T05:17:53.224Z,115.40
2018-05-11T05:18:53.208Z,116.20
2018-05-11T05:19:53.191Z,113.10
2018-05-11T05:20:53.183Z,107.50
2018-05-11T05:21:53.181Z,108.90
2018-05-11T05:22:53.181Z,106.90
2018-05-11T05:23:53.178Z,101.40
2018-05-11T05:24:53.195Z,100.60
2018-05-11T05:25:53.171Z,97.30
2018-05-11T05:26:53.194Z,85.90
2018-05-11T05:27:53.137Z,83.70
2018-05-11T05:28:53.133Z,82.70
2018-05-11T05:29:53.124Z,86.20
2018-05-11T05:30:53.120Z,88.00
2018-05-11T05:31:53.132Z,82.20
2018-05-11T05:32:53.109Z,79.30
2018-05-11T05:34:53.199Z,78.10
2018-05-11T05:35:53.214Z,79.50
2018-05-11T05:36:53.912Z,81.80
2018-05-11T05:37:53.175Z,81.40
2018-05-11T05:38:53.190Z,80.20
2018-05-11T05:39:53.167Z,78.10
2018-05-11T05:41:14.200Z,79.30
2018-05-11T05:41:54.953Z,78.50
2018-05-11T05:42:53.170Z,76.10
2018-05-11T05:43:53.137Z,81.20
2018-05-11T05:44:53.135Z,76.40
2018-05-11T05:45:54.972Z,76.80
2018-05-11T05:47:14.126Z,73.90
2018-05-11T05:47:53.127Z,73.20
2018-05-11T05:48:53.106Z,73.60
2018-05-11T05:49:53.121Z,72.90
2018-05-11T05:50:53.086Z,72.30
2018-05-11T05:51:53.085Z,67.00
2018-05-11T05:53:14.082Z,69.60
2018-05-11T05:53:53.111Z,74.40
2018-05-11T05:54:53.101Z,72.90
2018-05-11T05:55:53.066Z,70.00
2018-05-11T05:56:53.052Z,69.00
2018-05-11T05:57:54.502Z,72.50
2018-05-11T05:59:14.042Z,71.00
2018-05-11T05:59:53.043Z,71.30
2018-05-11T06:00:53.042Z,67.50
2018-05-11T06:01:53.017Z,65.40
2018-05-11T06:02:53.007Z,69.60
2018-05-11T06:03:53.026Z,68.80
2018-05-11T06:05:14.010Z,69.50
2018-05-11T06:05:52.992Z,66.40
2018-05-11T06:06:52.994Z,65.70
2018-05-11T06:07:53.518Z,66.60
2018-05-11T06:08:52.973Z,66.60
2018-05-11T06:09:52.974Z,62.80
2018-05-11T06:11:14.653Z,61.20
2018-05-11T06:11:52.948Z,60.00
2018-05-11T06:12:52.946Z,62.50
2018-05-11T06:13:52.942Z,53.70
2018-05-11T06:14:52.931Z,48.80
2018-05-11T06:15:52.936Z,45.90
2018-05-11T06:17:14.519Z,39.70
2018-05-11T06:17:52.919Z,33.00
2018-05-11T06:18:52.944Z,28.60
2018-05-11T06:19:52.910Z,25.30
2018-05-11T06:20:52.920Z,23.00
2018-05-11T06:21:53.532Z,25.20
2018-05-11T06:23:13.904Z,20.30
2018-05-11T06:23:53.807Z,21.60
2018-05-11T06:24:52.950Z,22.50
2018-05-11T06:25:52.857Z,27.50
2018-05-11T06:26:52.906Z,25.70
2018-05-11T06:27:52.865Z,23.90
2018-05-11T06:29:13.870Z,27.20
2018-05-11T06:29:52.826Z,32.80
2018-05-11T06:30:52.823Z,31.00
2018-05-11T06:31:53.526Z,28.00
2018-05-11T06:32:52.838Z,28.80
2018-05-11T06:33:52.847Z,30.20
2018-05-11T06:35:13.805Z,30.10
2018-05-11T06:35:52.792Z,30.00
2018-05-11T06:36:52.783Z,28.80
2018-05-11T06:37:52.803Z,26.30
2018-05-11T06:38:52.772Z,25.90
2018-05-11T06:39:52.775Z,25.50
2018-05-11T06:41:13.764Z,24.20
2018-05-11T06:41:52.750Z,24.60
2018-05-11T06:42:52.743Z,23.30
2018-05-11T06:43:52.791Z,24.60
2018-05-11T06:44:52.734Z,23.90
2018-05-11T06:45:52.724Z,22.40
2018-05-11T06:47:13.726Z,25.30
2018-05-11T06:47:52.715Z,22.80
2018-05-11T06:48:53.536Z,24.90
2018-05-11T06:49:52.697Z,21.80
2018-05-11T06:50:52.692Z,22.00
2018-05-11T06:51:52.689Z,23.80
2018-05-11T06:53:13.724Z,21.40
2018-05-11T06:53:52.680Z,20.60
2018-05-11T06:54:52.667Z,18.70
2018-05-11T06:55:52.706Z,16.20
2018-05-11T06:56:52.652Z,16.80
2018-05-11T06:57:53.176Z,14.80
2018-05-11T06:59:13.646Z,16.20
2018-05-11T06:59:52.648Z,15.80
2018-05-11T07:00:52.632Z,19.20
2018-05-11T07:01:52.663Z,17.00
2018-05-11T07:02:52.726Z,22.70
2018-05-11T07:03:52.635Z,19.00
2018-05-11T07:05:13.609Z,18.10
2018-05-11T07:05:52.596Z,17.20
2018-05-11T07:06:52.580Z,18.20
2018-05-11T07:07:52.634Z,18.30
2018-05-11T07:08:52.568Z,18.40
2018-05-11T07:09:52.567Z,18.30
2018-05-11T07:11:13.571Z,17.20
2018-05-11T07:11:52.550Z,16.70
2018-05-11T07:12:52.542Z,19.10
2018-05-11T07:13:52.541Z,17.40
2018-05-11T07:14:52.576Z,20.10
2018-05-11T07:15:52.545Z,16.70
2018-05-11T07:17:13.565Z,15.60
2018-05-11T07:17:52.511Z,17.00
2018-05-11T07:18:52.509Z,15.90
2018-05-11T07:19:52.503Z,16.00
2018-05-11T07:20:52.508Z,15.60
2018-05-11T07:21:52.486Z,15.80
2018-05-11T07:23:13.481Z,17.70
2018-05-11T07:23:52.475Z,17.40
2018-05-11T07:24:52.463Z,16.60
2018-05-11T07:25:52.459Z,15.60
2018-05-11T07:26:52.448Z,18.00
2018-05-11T07:27:52.443Z,15.20
2018-05-11T07:29:13.451Z,14.10
2018-05-11T07:29:52.442Z,14.00
2018-05-11T07:30:52.422Z,13.60
2018-05-11T07:31:52.410Z,14.80
2018-05-11T07:32:52.449Z,13.90
2018-05-11T07:33:52.405Z,13.60
2018-05-11T07:35:13.419Z,13.50
2018-05-11T07:35:52.396Z,12.90
2018-05-11T07:36:52.382Z,14.80
2018-05-11T07:37:52.397Z,13.00
2018-05-11T07:38:52.365Z,14.30
2018-05-11T07:39:52.375Z,10.80
2018-05-11T07:41:13.366Z,12.20
2018-05-11T07:41:52.382Z,11.20
2018-05-11T07:42:52.342Z,10.90
2018-05-11T07:43:52.354Z,11.00
2018-05-11T07:44:53.056Z,10.10
2018-05-11T07:45:52.324Z,8.90
2018-05-11T07:47:13.332Z,9.80
2018-05-11T07:47:52.321Z,10.70
2018-05-11T07:48:52.304Z,12.10
2018-05-11T07:49:52.313Z,9.80
2018-05-11T07:50:52.296Z,10.70
2018-05-11T07:51:52.288Z,14.80
2018-05-11T07:53:13.293Z,14.10
2018-05-11T07:53:52.305Z,10.10
2018-05-11T07:54:52.272Z,12.20
2018-05-11T07:55:52.278Z,12.40
2018-05-11T07:56:52.251Z,14.90
2018-05-11T07:57:52.267Z,11.90
2018-05-11T07:59:13.237Z,11.20
2018-05-11T07:59:52.273Z,11.70
2018-05-11T08:00:52.229Z,9.40
2018-05-11T08:01:52.225Z,10.60
2018-05-11T08:02:52.207Z,10.30
2018-05-11T08:03:52.229Z,11.60
2018-05-11T08:05:13.204Z,13.50
2018-05-11T08:05:52.190Z,11.00
2018-05-11T08:06:52.184Z,9.60
2018-05-11T08:07:52.177Z,9.50
2018-05-11T08:08:52.167Z,9.40
2018-05-11T08:09:52.164Z,10.50
2018-05-11T08:11:13.212Z,11.60
2018-05-11T08:11:52.153Z,9.60
2018-05-11T08:12:52.149Z,8.80
2018-05-11T08:13:52.144Z,9.90
2018-05-11T08:14:52.843Z,11.30
2018-05-11T08:17:13.571Z,9.10
2018-05-11T08:17:52.464Z,11.70
2018-05-11T08:18:53.101Z,8.50
2018-05-11T08:19:52.540Z,13.60
2018-05-11T08:20:54.234Z,9.60
2018-05-11T08:23:23.141Z,10.40
2018-05-11T08:25:23.133Z,10.10
2018-05-11T08:26:23.125Z,9.90
2018-05-11T08:27:23.024Z,8.50
2018-05-11T08:28:23.003Z,10.00
2018-05-11T08:29:23.522Z,8.40
2018-05-11T08:30:23.004Z,10.80
2018-05-11T08:31:22.994Z,249.70
2018-05-11T08:32:22.984Z,192.90
2018-05-11T08:33:22.969Z,181.30
2018-05-11T08:34:23.029Z,283.40
2018-05-11T08:35:22.951Z,314.20
2018-05-11T08:36:22.973Z,390.80
2018-05-11T08:37:22.940Z,101.70
2018-05-11T08:38:23.539Z,65.10
2018-05-11T08:39:22.927Z,80.40
2018-05-11T08:40:22.934Z,86.80
2018-05-11T08:41:22.955Z,54.50
2018-05-11T08:42:22.913Z,57.70
2018-05-11T08:43:22.937Z,57.70
2018-05-11T08:44:22.895Z,37.80
2018-05-11T08:45:22.898Z,41.50
2018-05-11T08:46:22.886Z,32.80
2018-05-11T08:47:22.876Z,45.00
2018-05-11T08:48:22.908Z,74.50
2018-05-11T08:49:22.862Z,61.40
2018-05-11T08:50:22.870Z,66.30
2018-05-11T08:51:22.849Z,64.90
2018-05-11T08:52:22.843Z,59.20
2018-05-11T08:53:22.834Z,60.50
2018-05-11T08:54:22.850Z,59.40
2018-05-11T08:55:22.839Z,55.80
2018-05-11T08:56:22.815Z,50.10
2018-05-11T08:57:22.819Z,57.60
2018-05-11T08:58:22.802Z,52.00
2018-05-11T08:59:22.798Z,49.60
2018-05-11T09:00:22.793Z,44.20
2018-05-11T09:01:22.777Z,45.20
2018-05-11T09:02:22.809Z,46.00
2018-05-11T09:03:22.771Z,44.90
2018-05-11T09:04:22.763Z,44.40
2018-05-11T09:05:22.750Z,44.20
